Terminal Aerodrome Forecast
Issued by NWS Upton, NY

Current Version | Previous Version | Text Only | Print | Product List | Glossary On
Versions: 1 2 3 4 5 6 7 8 9 10 11 12 13 14 15 16 17 18 19 20 21 22 23 24 25 26 27 28 29 30 31 32
000 FTUS41 KOKX 290530 TAFISP TAF KISP 290530Z 2906/3006 33012G19KT 6SM -SN BKN025 BKN060 TEMPO 2906/2907 4SM -SN FM290700 33013G21KT P6SM SCT040 BKN120 FM291400 33011KT P6SM SCT250 FM292100 25009KT P6SM SCT250 FM300100 20005KT P6SM SCT250=

USA.gov is the U.S. government's official web portal to all federal, state and local government web resources and services.